Crest (411) Station Data

Red Flag Warning: No
Fire Weather Zone: 250
SDGE Region: Eastern
Lat/Lon: 32.812/-116.853

Observations

Time Wind Speed/Gust Temp(F) RH Fuel Moist Fuel Temp(F) Dewpt(F) Tmax(F) Tmin(F) Accum Precip 10-min Precip SL Press(mb)
4/26 2:40am 304 2 G 3 54° 81% - - 48° 56.3° 53.8° - - 886.0
4/26 2:30am 313 3 G 4 55° 79% - - 48° 56.3° 54° - - 886.0
4/26 2:20am 336 1 G 2 55° 78% - - 48° 56.3° 54° - - 885.0
4/26 2:10am 330 2 G 3 55° 77% - - 48° 56.3° 54° - - 885.0
4/26 2:00am 295 2 G 3 54° 81% - - 49° 56.3° 54° - - 887.0
4/26 1:50am 334 1 G 4 54° 80% - - 48° 56.3° 54° - - 886.0
4/26 1:40am 311 1 G 2 55° 77% - - 48° 56.3° 54° - - 885.0
4/26 1:30am 334 2 G 3 56° 76% - - 48° 56.3° 54.2° - - 885.0
4/26 1:20am 331 1 G 4 55° 79% - - 48° 56.3° 54.2° - - 886.0
4/26 1:10am 268 1 G 3 55° 77% - - 48° 56.3° 54.3° - - 885.0
4/26 1:00am 275 2 G 3 55° 76% - - 48° 56.3° 54.3° - - 885.0
4/26 12:50am 323 1 G 3 55° 77% - - 48° 56.3° 54.3° - - 885.0
4/26 12:40am 166 1 G 2 55° 77% - - 48° 56.3° 54.3° - - 885.0
4/26 12:30am 219 2 G 3 55° 74% - - 47° 56.3° 54.5° - - 884.0
4/26 12:20am 109 2 G 4 56° 73% - - 47° 56.3° 55.2° - - 884.0
4/26 12:10am 233 0 G 1 55° 73% - - 47° 55.5° 55.2° - - 884.0
4/26 12:00am 198 1 G 4 56° 71% - - 47° 64.4° 53.4° - - 883.0
4/25 11:50pm 116 3 G 5 56° 72% - - 47° 64.4° 53.4° - - 883.0
4/25 11:40pm 124 2 G 5 55° 73% - - 47° 64.4° 53.4° - - 884.0
4/25 11:30pm 143 2 G 4 56° 72% - - 47° 64.4° 53.4° - - 883.0
4/25 11:20pm 124 4 G 6 56° 72% - - 47° 64.4° 53.4° - - 883.0
4/25 11:10pm 107 2 G 6 56° 72% - - 47° 64.4° 53.4° - - 883.0
4/25 11:00pm 109 3 G 5 56° 72% - - 47° 64.4° 53.4° - - 883.0
4/25 10:50pm 116 3 G 4 56° 72% - - 47° 64.4° 53.4° - - 883.0
4/25 10:40pm 101 2 G 3 56° 69% - - 46° 64.4° 53.4° - - 882.0
4/25 10:30pm 82 2 G 3 57° 68% - - 46° 64.4° 53.4° - - 882.0
4/25 10:20pm 90 2 G 3 57° 68% - - 46° 64.4° 53.4° - - 882.0
4/25 10:10pm 93 2 G 3 56° 70% - - 47° 64.4° 53.4° - - 883.0
4/25 10:00pm 83 0 G 2 56° 71% - - 47° 64.4° 53.4° - - 883.0
4/25 9:50pm 234 1 G 2 56° 70% - - 46° 64.4° 53.4° - - 882.0
4/25 9:40pm 164 1 G 2 56° 68% - - 46° 64.4° 53.4° - - 882.0
4/25 9:30pm 271 0 G 1 57° 67% - - 46° 64.4° 53.4° - - 881.0
4/25 9:20pm 282 2 G 3 57° 67% - - 46° 64.4° 53.4° - - 881.0
4/25 9:10pm 287 4 G 5 57° 66% - - 46° 64.4° 53.4° - - 881.0
4/25 9:00pm 281 3 G 4 57° 66% - - 46° 64.4° 53.4° - - 881.0
4/25 8:50pm 280 5 G 6 57° 66% - - 46° 64.4° 53.4° - - 881.0
4/25 8:40pm 286 6 G 7 57° 66% - - 46° 64.4° 53.4° - - 881.0
4/25 8:30pm 293 5 G 7 57° 66% - - 46° 64.4° 53.4° - - 881.0
4/25 8:20pm 289 6 G 7 57° 66% - - 46° 64.4° 53.4° - - 881.0
4/25 8:10pm 289 6 G 8 57° 66% - - 46° 64.4° 53.4° - - 881.0
4/25 8:00pm 285 6 G 7 58° 65% - - 46° 64.4° 53.4° - - 881.0
4/25 7:50pm 298 5 G 6 58° 65% - - 46° 64.4° 53.4° - - 881.0
4/25 7:40pm 291 6 G 8 58° 64% - - 46° 64.4° 53.4° - - 881.0
4/25 7:30pm 288 6 G 8 58° 64% - - 46° 64.4° 53.4° - - 881.0
4/25 7:20pm 290 7 G 9 58° 63% - - 46° 64.4° 53.4° - - 881.0
4/25 7:10pm 281 7 G 9 59° 63% - - 46° 64.4° 53.4° - - 881.0
4/25 7:00pm 281 7 G 12 59° 62% - - 46° 64.4° 53.4° - - 880.0
4/25 6:50pm 281 8 G 13 59° 61% - - 46° 64.4° 53.4° - - 880.0
4/25 6:40pm 278 10 G 16 60° 61% - - 46° 64.4° 53.4° - - 880.0
4/25 6:30pm 274 10 G 15 60° 61% - - 46° 64.4° 53.4° - - 880.0
4/25 6:20pm 277 11 G 13 60° 61% - - 46° 64.4° 53.4° - - 880.0
4/25 6:10pm 276 10 G 13 60° 61% - - 47° 64.4° 53.4° - - 881.0
4/25 6:00pm 272 10 G 14 60° 61% - - 47° 64.4° 53.4° - - 881.0
4/25 5:50pm 269 9 G 13 61° 60% - - 47° 64.4° 53.4° - - 880.0
4/25 5:40pm 275 10 G 17 62° 61% - - 48° 64.4° 53.4° - - 881.0
4/25 5:30pm 273 9 G 13 61° 65% - - 50° 64.4° 53.4° - - 883.0
4/25 5:20pm 273 9 G 14 61° 67% - - 50° 64.4° 53.4° - - 884.0
4/25 5:10pm 240 7 G 12 60° 75% - - 52° 64.4° 53.4° - - 887.0
4/25 5:00pm 221 9 G 13 60° 77% - - 53° 64.4° 53.4° - - 887.0
4/25 4:50pm 213 8 G 14 61° 75% - - 53° 64.4° 53.4° - - 887.0
4/25 4:40pm 215 9 G 13 61° 72% - - 52° 64.4° 53.4° - - 886.0
4/25 4:30pm 206 9 G 14 61° 74% - - 53° 64.4° 53.4° - - 886.0
4/25 4:20pm 213 9 G 14 61° 75% - - 53° 64.4° 53.4° - - 887.0
4/25 4:10pm 215 7 G 14 61° 74% - - 53° 64.4° 53.4° - - 886.0
4/25 4:00pm 231 8 G 12 61° 73% - - 53° 64.4° 53.4° - - 886.0
4/25 3:50pm 234 8 G 14 61° 74% - - 53° 64.4° 53.4° - - 887.0
4/25 3:40pm 234 10 G 15 61° 73% - - 52° 64.4° 53.4° - - 886.0
4/25 3:30pm 239 9 G 15 62° 71% - - 52° 64.4° 53.4° - - 885.0
4/25 3:20pm 241 10 G 15 61° 71% - - 52° 64.4° 53.4° - - 886.0
4/25 3:10pm 231 10 G 16 61° 73% - - 52° 64.4° 53.4° - - 886.0
4/25 3:00pm 222 10 G 16 62° 72% - - 53° 64.4° 53.4° - - 886.0
4/25 2:50pm 227 9 G 15 62° 72% - - 53° 64.4° 53.4° - - 886.0
4/25 2:40pm 227 10 G 15 62° 72% - - 53° 64.4° 53.4° - - 886.0
4/25 2:30pm 239 10 G 16 62° 71% - - 53° 64.4° 53.4° - - 886.0
4/25 2:20pm 254 10 G 16 63° 67% - - 52° 64.4° 53.4° - - 884.0
4/25 2:10pm 251 8 G 13 64° 65% - - 51° 64.4° 53.4° - - 884.0
4/25 2:00pm 272 10 G 16 63° 62% - - 50° 64.4° 53.4° - - 883.0
4/25 1:50pm 265 9 G 15 64° 60% - - 49° 64.4° 53.4° - - 882.0
4/25 1:40pm 262 9 G 15 64° 60% - - 49° 64.4° 53.4° - - 882.0
4/25 1:30pm 267 8 G 13 63° 60% - - 49° 63.9° 53.4° - - 882.0
4/25 1:20pm 273 8 G 14 63° 60% - - 49° 63.9° 53.4° - - 882.0
4/25 1:10pm 257 7 G 13 63° 62% - - 50° 63.7° 53.4° - - 883.0
4/25 1:00pm 259 9 G 14 62° 64% - - 50° 63.7° 53.4° - - 883.0
4/25 12:50pm 249 7 G 14 63° 63% - - 50° 63.7° 53.4° - - 883.0
4/25 12:40pm 250 7 G 12 62° 64% - - 50° 63.7° 53.4° - - 883.0
4/25 12:30pm 266 8 G 13 63° 61% - - 49° 63.7° 53.4° - - 882.0
4/25 12:20pm 262 9 G 16 63° 59% - - 48° 63.7° 53.4° - - 881.0
4/25 12:10pm 261 9 G 17 62° 63% - - 50° 63.7° 53.4° - - 883.0
4/25 12:00pm 281 8 G 16 63° 60% - - 49° 63.7° 53.4° - - 882.0
4/25 11:50am 269 8 G 13 62° 65% - - 50° 63.1° 53.4° - - 884.0
4/25 11:40am 256 7 G 14 62° 62% - - 49° 63.1° 53.4° - - 883.0
4/25 11:30am 261 7 G 12 62° 62% - - 49° 62.8° 53.4° - - 883.0
4/25 11:20am 273 6 G 12 61° 67% - - 50° 62.5° 53.4° - - 884.0
4/25 11:10am 269 7 G 14 62° 67% - - 51° 62.5° 53.4° - - 884.0
4/25 11:00am 259 6 G 13 62° 67% - - 51° 62.5° 53.4° - - 884.0
4/25 10:50am 256 5 G 10 61° 66% - - 50° 61.8° 53.4° - - 884.0
4/25 10:40am 288 7 G 13 60° 69% - - 50° 61.1° 53.4° - - 885.0
4/25 10:30am 236 6 G 11 60° 74% - - 52° 60.5° 53.4° - - 887.0
4/25 10:20am 244 6 G 11 59° 81% - - 53° 59.9° 53.4° - - 889.0
4/25 10:10am 229 6 G 12 59° 83% - - 54° 59.9° 53.4° - - 890.0
4/25 10:00am 235 5 G 15 60° 77% - - 52° 59.9° 53.4° - - 887.0
4/25 9:50am 228 6 G 10 59° 76% - - 52° 59.9° 53.4° - - 887.0
4/25 9:40am 232 8 G 12 57° 86% - - 53° 58.8° 53.4° - - 891.0
4/25 9:30am 241 7 G 14 58° 86% - - 54° 58.8° 53.4° - - 891.0
4/25 9:20am 258 7 G 10 57° 96% - - 56° 58.8° 53.4° - - 897.0
4/25 9:10am 254 7 G 12 57° 99% - - 56° 58.8° 53.4° - - 899.0
4/25 9:00am 215 7 G 11 58° 87% - - 54° 58.8° 53.4° - - 891.0
4/25 8:50am 224 4 G 8 58° 86% - - 54° 58.8° 53.4° - - 891.0
4/25 8:40am 202 5 G 8 57° 97% - - 56° 58.1° 53.4° - - 897.0
4/25 8:30am 204 5 G 9 56° 100% - - 56° 56.6° 53.4° - - 908.0
4/25 8:20am 222 7 G 10 56° 100% - - 56° 56.6° 53.4° - - 904.0
4/25 8:10am 213 5 G 9 56° 100% - - 56° 56.6° 53.4° - - 901.0
4/25 8:00am 193 4 G 7 56° 100% - - 56° 56.6° 53.4° - - 909.0
4/25 7:50am 208 5 G 7 55° 100% - - 55° 55.6° 53.4° - - 916.0
4/25 7:40am 182 3 G 6 55° 100% - - 55° 55.3° 53.4° - - 923.0
4/25 7:30am 171 3 G 6 55° 100% - - 55° 54.9° 53.4° - - 922.0
4/25 7:20am 189 3 G 5 54° 100% - - 54° 54.7° 53.4° - - 922.0
4/25 7:10am 195 4 G 6 54° 100% - - 54° 54.7° 53.4° - - 922.0
4/25 7:00am 182 4 G 7 54° 100% - - 54° 54.7° 53.4° - - 922.0
4/25 6:50am 200 5 G 8 54° 100% - - 54° 54.7° 53.4° - - 922.0
4/25 6:40am 208 6 G 9 54° 100% - - 54° 54.7° 53.4° - - 922.0
4/25 6:30am 217 6 G 10 54° 100% - - 54° 54.7° 53.4° - - 922.0
4/25 6:20am 216 6 G 9 54° 100% - - 54° 54.7° 53.4° - - 922.0
4/25 6:10am 202 5 G 8 54° 100% - - 54° 54.7° 53.4° - - 922.0
4/25 6:00am 212 5 G 7 54° 100% - - 54° 54.7° 53.4° - - 922.0
4/25 5:50am 202 5 G 8 54° 100% - - 54° 54.7° 53.4° - - 922.0
4/25 5:40am 206 4 G 7 54° 100% - - 54° 54.7° 53.4° - - 922.0
4/25 5:30am 194 4 G 7 54° 100% - - 54° 54.7° 53.4° - - 922.0
4/25 5:20am 201 5 G 7 54° 100% - - 54° 54.7° 53.4° - - 922.0
4/25 5:10am 201 5 G 7 54° 100% - - 54° 54.7° 53.4° - - 922.0
4/25 5:00am 191 4 G 7 54° 100% - - 54° 54.7° 53.4° - - 922.0
4/25 4:50am 188 4 G 6 54° 100% - - 54° 54.7° 53.4° - - 922.0
4/25 4:40am 191 4 G 7 54° 100% - - 54° 54.7° 53.4° - - 922.0
4/25 4:30am 209 4 G 7 54° 100% - - 54° 54.7° 53.4° - - 922.0
4/25 4:20am 179 4 G 7 54° 100% - - 54° 54.7° 53.4° - - 922.0
4/25 4:10am 164 5 G 7 54° 100% - - 54° 54.7° 53.4° - - 922.0
4/25 4:00am 165 4 G 7 54° 100% - - 54° 54.7° 53.4° - - 922.0
4/25 3:50am 171 5 G 9 54° 100% - - 54° 54.7° 53.4° - - 922.0
4/25 3:40am 153 6 G 9 54° 100% - - 54° 54.7° 53.4° - - 922.0
4/25 3:30am 161 4 G 8 54° 100% - - 54° 54.7° 53.4° - - 922.0
4/25 3:20am 171 4 G 7 54° 100% - - 54° 54.7° 53.4° - - 922.0
4/25 3:10am 183 5 G 9 54° 100% - - 54° 54.7° 53.4° - - 922.0
4/25 3:00am 187 6 G 11 54° 100% - - 54° 54.7° 53.4° - - 922.0
4/25 2:50am 204 7 G 12 54° 100% - - 54° 54.7° 53.4° - - 922.0
4/25 2:40am 207 7 G 12 54° 100% - - 54° 54.7° 53.4° - - 922.0
4/25 2:30am 222 7 G 11 54° 100% - - 54° 54.7° 53.4° - - 922.0
4/25 2:20am 205 7 G 12 54° 100% - - 54° 54.7° 53.4° - - 922.0
4/25 2:10am 202 7 G 12 54° 100% - - 54° 54.7° 53.4° - - 922.0
4/25 2:00am 210 7 G 10 54° 100% - - 54° 54.7° 53.4° - - 922.0
4/25 1:50am 193 5 G 11 54° 100% - - 54° 54.7° 53.4° - - 922.0
4/25 1:40am 185 5 G 10 55° 100% - - 55° 54.7° 53.4° - - 922.0
4/25 1:30am 160 5 G 9 54° 100% - - 54° 54.7° 53.4° - - 922.0
4/25 1:20am 148 3 G 5 54° 100% - - 54° 54.7° 53.4° - - 922.0
4/25 1:10am 162 5 G 8 54° 100% - - 54° 54.6° 53.4° - - 922.0
4/25 1:00am 141 4 G 6 54° 100% - - 54° 54.5° 53.4° - - 920.0
4/25 12:50am 162 4 G 6 54° 100% - - 54° 54.5° 53.4° - - 920.0
4/25 12:40am 166 3 G 6 54° 100% - - 54° 54.4° 53.4° - - 922.0
4/25 12:30am 178 4 G 7 54° 100% - - 54° 54.4° 53.4° - - 922.0
4/25 12:20am 189 5 G 10 54° 100% - - 54° 54.2° 53.4° - - 922.0
4/25 12:10am 202 7 G 12 54° 100% - - 54° 53.9° 53.4° - - 922.0
4/25 12:00am 217 8 G 12 54° 100% - - 54° 65.3° 51.9° - - 922.0
4/24 11:50pm 221 8 G 13 54° 100% - - 54° 65.3° 51.9° - - 922.0
4/24 11:40pm 233 8 G 11 54° 100% - - 54° 65.3° 51.9° - - 922.0
4/24 11:30pm 225 5 G 10 55° 100% - - 55° 65.3° 51.9° - - 922.0
4/24 11:20pm 211 4 G 7 55° 100% - - 55° 65.3° 51.9° - - 919.0
4/24 11:10pm 202 3 G 6 55° 100% - - 55° 65.3° 51.9° - - 920.0
4/24 11:00pm 199 4 G 6 54° 100% - - 54° 65.3° 51.9° - - 922.0
4/24 10:50pm 204 3 G 6 54° 100% - - 54° 65.3° 51.9° - - 922.0
4/24 10:40pm 208 5 G 8 54° 100% - - 54° 65.3° 51.9° - - 922.0
4/24 10:30pm 195 6 G 9 54° 100% - - 54° 65.3° 51.9° - - 922.0
4/24 10:20pm 192 6 G 10 54° 100% - - 54° 65.3° 51.9° - - 922.0
4/24 10:10pm 214 7 G 9 54° 100% - - 54° 65.3° 51.9° - - 922.0
4/24 10:00pm 217 6 G 9 55° 100% - - 55° 65.3° 51.9° - - 922.0
4/24 9:50pm 214 6 G 9 55° 100% - - 55° 65.3° 51.9° - - 922.0
4/24 9:40pm 210 5 G 9 55° 100% - - 55° 65.3° 51.9° - - 922.0
4/24 9:30pm 212 6 G 9 55° 100% - - 55° 65.3° 51.9° - - 922.0
4/24 9:20pm 220 5 G 8 55° 100% - - 55° 65.3° 51.9° - - 922.0
4/24 9:10pm 226 5 G 8 55° 100% - - 55° 65.3° 51.9° - - 922.0
4/24 9:00pm 228 6 G 8 55° 100% - - 55° 65.3° 51.9° - - 922.0
4/24 8:50pm 232 5 G 8 55° 100% - - 55° 65.3° 51.9° - - 922.0
4/24 8:40pm 238 4 G 8 56° 100% - - 56° 65.3° 51.9° - - 922.0
4/24 8:30pm 251 5 G 9 56° 100% - - 56° 65.3° 51.9° - - 922.0
4/24 8:20pm 255 5 G 9 56° 100% - - 56° 65.3° 51.9° - - 922.0
4/24 8:10pm 250 6 G 11 56° 100% - - 56° 65.3° 51.9° - - 922.0
4/24 8:00pm 249 6 G 10 56° 100% - - 56° 65.3° 51.9° - - 923.0
4/24 7:50pm 256 6 G 9 56° 100% - - 56° 65.3° 51.9° - - 923.0
4/24 7:40pm 258 5 G 8 56° 100% - - 56° 65.3° 51.9° - - 923.0
4/24 7:30pm 256 5 G 8 57° 100% - - 57° 65.3° 51.9° - - 923.0
4/24 7:20pm 255 6 G 9 57° 100% - - 57° 65.3° 51.9° - - 922.0
4/24 7:10pm 255 6 G 9 57° 100% - - 57° 65.3° 51.9° - - 919.0
4/24 7:00pm 252 6 G 9 57° 100% - - 57° 65.3° 51.9° - - 912.0
4/24 6:50pm 241 5 G 11 58° 100% - - 58° 65.3° 51.9° - - 910.0
4/24 6:40pm 241 5 G 9 58° 100% - - 58° 65.3° 51.9° - - 907.0
4/24 6:30pm 235 6 G 10 58° 100% - - 58° 65.3° 51.9° - - 898.0
4/24 6:20pm 240 5 G 8 59° 98% - - 58° 65.3° 51.9° - - 896.0
4/24 6:10pm 234 5 G 8 58° 100% - - 58° 65.3° 51.9° - - 902.0
4/24 6:00pm 209 6 G 10 59° 100% - - 59° 65.3° 51.9° - - 897.0